sensor_id;sensor_type;location;lat;lon;timestamp;pressure;altitude;pressure_sealevel;temperature;humidity
60101;BME280;45978;53.646;55.930;2022-07-01T00:00:10;98963.53;;;14.34;61.21
60101;BME280;45978;53.646;55.930;2022-07-01T00:01:34;98959.47;;;14.28;61.31
60101;BME280;45978;53.646;55.930;2022-07-01T00:02:53;98957.69;;;14.29;61.44
60101;BME280;45978;53.646;55.930;2022-07-01T00:04:15;98956.66;;;14.31;61.71
60101;BME280;45978;53.646;55.930;2022-07-01T00:05:34;98946.41;;;14.11;61.86
60101;BME280;45978;53.646;55.930;2022-07-01T00:06:54;98956.50;;;14.18;62.06
60101;BME280;45978;53.646;55.930;2022-07-01T00:08:14;98959.75;;;14.23;61.69
60101;BME280;45978;53.646;55.930;2022-07-01T00:09:34;98945.28;;;14.15;61.71
60101;BME280;45978;53.646;55.930;2022-07-01T00:10:57;98959.59;;;14.26;61.44
60101;BME280;45978;53.646;55.930;2022-07-01T00:12:18;98955.06;;;14.29;61.47
60101;BME280;45978;53.646;55.930;2022-07-01T00:13:38;98944.28;;;14.32;61.69
60101;BME280;45978;53.646;55.930;2022-07-01T00:14:58;98954.50;;;14.38;61.46
60101;BME280;45978;53.646;55.930;2022-07-01T00:16:18;98960.22;;;14.46;61.31
60101;BME280;45978;53.646;55.930;2022-07-01T00:17:37;98951.31;;;14.47;61.45
60101;BME280;45978;53.646;55.930;2022-07-01T00:18:57;98956.63;;;14.47;61.26
60101;BME280;45978;53.646;55.930;2022-07-01T00:20:16;98945.38;;;14.43;60.92
60101;BME280;45978;53.646;55.930;2022-07-01T00:21:36;98951.03;;;14.52;60.98
60101;BME280;45978;53.646;55.930;2022-07-01T00:22:57;98938.56;;;14.39;60.99
60101;BME280;45978;53.646;55.930;2022-07-01T00:24:19;98949.28;;;14.52;61.26
60101;BME280;45978;53.646;55.930;2022-07-01T00:25:38;98951.50;;;14.44;61.10
60101;BME280;45978;53.646;55.930;2022-07-01T00:26:57;98955.50;;;14.51;61.27
60101;BME280;45978;53.646;55.930;2022-07-01T00:28:17;98936.97;;;14.37;61.16
60101;BME280;45978;53.646;55.930;2022-07-01T00:29:37;98949.53;;;14.48;61.10
60101;BME280;45978;53.646;55.930;2022-07-01T00:30:56;98948.59;;;14.49;61.24
60101;BME280;45978;53.646;55.930;2022-07-01T00:32:19;98944.16;;;14.49;61.00
60101;BME280;45978;53.646;55.930;2022-07-01T00:33:40;98947.28;;;14.56;61.01
60101;BME280;45978;53.646;55.930;2022-07-01T00:35:04;98935.41;;;14.49;60.89
60101;BME280;45978;53.646;55.930;2022-07-01T00:36:24;98917.88;;;14.32;60.97
60101;BME280;45978;53.646;55.930;2022-07-01T00:37:44;98956.34;;;14.52;60.86
60101;BME280;45978;53.646;55.930;2022-07-01T00:39:03;98954.81;;;14.48;61.09
60101;BME280;45978;53.646;55.930;2022-07-01T00:40:23;98947.94;;;14.45;61.35
60101;BME280;45978;53.646;55.930;2022-07-01T00:41:43;98950.50;;;14.46;61.47
60101;BME280;45978;53.646;55.930;2022-07-01T00:43:03;98944.34;;;14.46;60.70
60101;BME280;45978;53.646;55.930;2022-07-01T00:44:24;98974.59;;;14.56;60.70
60101;BME280;45978;53.646;55.930;2022-07-01T00:45:48;98974.59;;;14.56;60.50
60101;BME280;45978;53.646;55.930;2022-07-01T00:47:10;98968.41;;;14.56;60.55
60101;BME280;45978;53.646;55.930;2022-07-01T00:48:32;98953.03;;;14.48;60.46
60101;BME280;45978;53.646;55.930;2022-07-01T00:49:52;98966.69;;;14.56;60.47
60101;BME280;45978;53.646;55.930;2022-07-01T00:51:13;98961.19;;;14.59;60.72
60101;BME280;45978;53.646;55.930;2022-07-01T00:52:35;98958.75;;;14.56;60.81
60101;BME280;45978;53.646;55.930;2022-07-01T00:53:55;98959.50;;;14.58;60.95
60101;BME280;45978;53.646;55.930;2022-07-01T00:55:17;98957.75;;;14.43;61.60
60101;BME280;45978;53.646;55.930;2022-07-01T00:56:38;98960.81;;;14.35;62.23
60101;BME280;45978;53.646;55.930;2022-07-01T00:57:58;98958.19;;;14.35;62.25
60101;BME280;45978;53.646;55.930;2022-07-01T00:59:17;98971.38;;;14.35;63.31
60101;BME280;45978;53.646;55.930;2022-07-01T01:00:38;98976.38;;;14.40;62.51
60101;BME280;45978;53.646;55.930;2022-07-01T01:01:58;98958.25;;;14.34;62.64
60101;BME280;45978;53.646;55.930;2022-07-01T01:03:19;98949.19;;;14.23;63.11
60101;BME280;45978;53.646;55.930;2022-07-01T01:04:40;98938.22;;;14.15;62.89
60101;BME280;45978;53.646;55.930;2022-07-01T01:06:02;98973.34;;;14.32;63.21
60101;BME280;45978;53.646;55.930;2022-07-01T01:07:22;98955.84;;;14.15;63.17
60101;BME280;45978;53.646;55.930;2022-07-01T01:08:42;98974.91;;;14.20;63.58
60101;BME280;45978;53.646;55.930;2022-07-01T01:10:02;98975.66;;;14.22;63.34
60101;BME280;45978;53.646;55.930;2022-07-01T01:11:25;98975.19;;;14.15;63.67
60101;BME280;45978;53.646;55.930;2022-07-01T01:12:45;98941.91;;;13.97;63.36
60101;BME280;45978;53.646;55.930;2022-07-01T01:14:06;98948.03;;;13.97;63.08
60101;BME280;45978;53.646;55.930;2022-07-01T01:15:26;98976.88;;;14.16;63.25
60101;BME280;45978;53.646;55.930;2022-07-01T01:16:50;98977.47;;;14.21;63.01
60101;BME280;45978;53.646;55.930;2022-07-01T01:18:20;98934.00;;;13.97;62.69
60101;BME280;45978;53.646;55.930;2022-07-01T01:19:44;98981.03;;;14.20;62.84
60101;BME280;45978;53.646;55.930;2022-07-01T01:21:05;98979.34;;;14.19;62.90
60101;BME280;45978;53.646;55.930;2022-07-01T01:22:24;98930.16;;;13.86;62.78
60101;BME280;45978;53.646;55.930;2022-07-01T01:23:44;98984.78;;;14.16;62.66
60101;BME280;45978;53.646;55.930;2022-07-01T01:25:07;98985.06;;;14.12;62.91
60101;BME280;45978;53.646;55.930;2022-07-01T01:26:27;99012.63;;;14.22;63.07
60101;BME280;45978;53.646;55.930;2022-07-01T01:27:47;98968.63;;;13.91;63.15
60101;BME280;45978;53.646;55.930;2022-07-01T01:29:06;99002.00;;;14.07;63.36
60101;BME280;45978;53.646;55.930;2022-07-01T01:30:31;99005.69;;;14.05;64.45
60101;BME280;45978;53.646;55.930;2022-07-01T01:31:51;99011.38;;;14.13;64.97
60101;BME280;45978;53.646;55.930;2022-07-01T01:33:11;99003.47;;;14.13;65.53
60101;BME280;45978;53.646;55.930;2022-07-01T01:34:31;98991.72;;;14.03;66.07
60101;BME280;45978;53.646;55.930;2022-07-01T01:35:51;99009.84;;;14.09;66.05
60101;BME280;45978;53.646;55.930;2022-07-01T01:37:11;99015.13;;;14.09;66.01
60101;BME280;45978;53.646;55.930;2022-07-01T01:38:34;99031.75;;;14.11;65.95
60101;BME280;45978;53.646;55.930;2022-07-01T01:39:56;99021.25;;;14.10;66.66
60101;BME280;45978;53.646;55.930;2022-07-01T01:41:17;99023.22;;;14.06;66.84
60101;BME280;45978;53.646;55.930;2022-07-01T01:42:37;99013.41;;;14.08;67.19
60101;BME280;45978;53.646;55.930;2022-07-01T01:43:57;99004.56;;;14.09;67.70
60101;BME280;45978;53.646;55.930;2022-07-01T01:45:17;99003.69;;;14.09;67.65
60101;BME280;45978;53.646;55.930;2022-07-01T01:46:37;98982.44;;;13.96;67.68
60101;BME280;45978;53.646;55.930;2022-07-01T01:47:57;98989.44;;;13.97;68.00
60101;BME280;45978;53.646;55.930;2022-07-01T01:49:18;99016.31;;;14.03;67.75
60101;BME280;45978;53.646;55.930;2022-07-01T01:50:38;99022.44;;;14.04;67.41
60101;BME280;45978;53.646;55.930;2022-07-01T01:51:58;99037.94;;;14.10;67.63
60101;BME280;45978;53.646;55.930;2022-07-01T01:53:19;99037.94;;;14.10;67.63
60101;BME280;45978;53.646;55.930;2022-07-01T01:54:40;99037.09;;;14.10;67.97
60101;BME280;45978;53.646;55.930;2022-07-01T01:56:01;99025.69;;;14.09;68.81
60101;BME280;45978;53.646;55.930;2022-07-01T01:57:21;99030.63;;;14.15;68.57
60101;BME280;45978;53.646;55.930;2022-07-01T01:58:41;99019.13;;;14.16;68.23
60101;BME280;45978;53.646;55.930;2022-07-01T02:00:03;99020.75;;;14.19;68.19
60101;BME280;45978;53.646;55.930;2022-07-01T02:01:48;99011.47;;;14.12;67.59
60101;BME280;45978;53.646;55.930;2022-07-01T02:03:08;99020.47;;;14.23;67.57
60101;BME280;45978;53.646;55.930;2022-07-01T02:04:28;99029.50;;;14.35;67.01
60101;BME280;45978;53.646;55.930;2022-07-01T02:05:49;99028.09;;;14.44;66.43
60101;BME280;45978;53.646;55.930;2022-07-01T02:07:09;99016.25;;;14.51;66.45
60101;BME280;45978;53.646;55.930;2022-07-01T02:08:29;99037.31;;;14.69;66.24
60101;BME280;45978;53.646;55.930;2022-07-01T02:09:52;99034.97;;;14.78;66.07
60101;BME280;45978;53.646;55.930;2022-07-01T02:11:11;99034.59;;;14.84;65.67
60101;BME280;45978;53.646;55.930;2022-07-01T02:12:31;99028.09;;;14.90;66.15
60101;BME280;45978;53.646;55.930;2022-07-01T02:13:51;99040.59;;;15.02;66.01
60101;BME280;45978;53.646;55.930;2022-07-01T02:15:11;99030.69;;;15.06;65.98
60101;BME280;45978;53.646;55.930;2022-07-01T02:16:30;99025.03;;;15.12;65.49
60101;BME280;45978;53.646;55.930;2022-07-01T02:17:50;99035.59;;;15.27;65.15
60101;BME280;45978;53.646;55.930;2022-07-01T02:19:13;99012.00;;;15.23;64.53
60101;BME280;45978;53.646;55.930;2022-07-01T02:20:34;99037.06;;;15.47;64.24
60101;BME280;45978;53.646;55.930;2022-07-01T02:21:53;99024.13;;;15.56;63.50
60101;BME280;45978;53.646;55.930;2022-07-01T02:23:14;99038.94;;;15.73;62.43
60101;BME280;45978;53.646;55.930;2022-07-01T02:24:34;99042.22;;;15.91;62.51
60101;BME280;45978;53.646;55.930;2022-07-01T02:25:53;99042.41;;;16.02;62.31
60101;BME280;45978;53.646;55.930;2022-07-01T02:27:12;99047.88;;;16.14;61.65
60101;BME280;45978;53.646;55.930;2022-07-01T02:28:33;99036.66;;;16.23;61.60
60101;BME280;45978;53.646;55.930;2022-07-01T02:29:55;99041.28;;;16.34;61.45
60101;BME280;45978;53.646;55.930;2022-07-01T02:31:16;99038.56;;;16.48;61.11
60101;BME280;45978;53.646;55.930;2022-07-01T02:32:36;99043.72;;;16.64;60.92
60101;BME280;45978;53.646;55.930;2022-07-01T02:33:57;99031.31;;;16.65;60.68
60101;BME280;45978;53.646;55.930;2022-07-01T02:35:17;99047.34;;;16.76;60.76
60101;BME280;45978;53.646;55.930;2022-07-01T02:36:36;99043.06;;;16.88;60.07
60101;BME280;45978;53.646;55.930;2022-07-01T02:37:56;99032.91;;;17.07;59.57
60101;BME280;45978;53.646;55.930;2022-07-01T02:39:15;99044.91;;;17.51;58.05
60101;BME280;45978;53.646;55.930;2022-07-01T02:40:35;99040.22;;;17.68;57.13
60101;BME280;45978;53.646;55.930;2022-07-01T02:41:59;99049.94;;;18.06;55.82
60101;BME280;45978;53.646;55.930;2022-07-01T02:43:39;99048.66;;;18.35;54.39
60101;BME280;45978;53.646;55.930;2022-07-01T02:44:59;99049.63;;;18.58;53.08
60101;BME280;45978;53.646;55.930;2022-07-01T02:46:18;99040.28;;;18.77;52.65
60101;BME280;45978;53.646;55.930;2022-07-01T02:47:39;99035.88;;;19.00;52.20
60101;BME280;45978;53.646;55.930;2022-07-01T02:49:01;99040.06;;;19.27;51.21
60101;BME280;45978;53.646;55.930;2022-07-01T02:50:22;99045.78;;;19.56;50.32
60101;BME280;45978;53.646;55.930;2022-07-01T02:51:42;99036.94;;;19.67;49.58
60101;BME280;45978;53.646;55.930;2022-07-01T02:53:02;99043.22;;;19.54;49.25
60101;BME280;45978;53.646;55.930;2022-07-01T02:54:23;99040.69;;;19.53;49.33
60101;BME280;45978;53.646;55.930;2022-07-01T02:55:43;99041.53;;;19.65;48.25
60101;BME280;45978;53.646;55.930;2022-07-01T02:57:04;99028.97;;;19.78;47.04
60101;BME280;45978;53.646;55.930;2022-07-01T02:58:25;99032.97;;;19.72;46.54
60101;BME280;45978;53.646;55.930;2022-07-01T02:59:45;99035.75;;;19.93;45.83
60101;BME280;45978;53.646;55.930;2022-07-01T03:01:04;99046.06;;;19.75;45.82
60101;BME280;45978;53.646;55.930;2022-07-01T03:02:24;99042.19;;;19.80;45.85
60101;BME280;45978;53.646;55.930;2022-07-01T03:03:44;99040.47;;;19.90;45.58
60101;BME280;45978;53.646;55.930;2022-07-01T03:05:04;99039.03;;;19.74;45.78
60101;BME280;45978;53.646;55.930;2022-07-01T03:06:23;99037.06;;;19.54;46.43
60101;BME280;45978;53.646;55.930;2022-07-01T03:07:43;99037.44;;;19.38;47.08
60101;BME280;45978;53.646;55.930;2022-07-01T03:09:03;99045.03;;;19.43;46.94
60101;BME280;45978;53.646;55.930;2022-07-01T03:10:23;99048.31;;;19.46;46.93
60101;BME280;45978;53.646;55.930;2022-07-01T03:11:44;99028.97;;;19.44;46.99
60101;BME280;45978;53.646;55.930;2022-07-01T03:13:04;99031.34;;;19.47;47.34
60101;BME280;45978;53.646;55.930;2022-07-01T03:14:24;99045.53;;;19.36;47.44
60101;BME280;45978;53.646;55.930;2022-07-01T03:15:44;99042.13;;;19.46;47.51
60101;BME280;45978;53.646;55.930;2022-07-01T03:17:03;99049.16;;;19.69;47.19
60101;BME280;45978;53.646;55.930;2022-07-01T03:18:22;99039.25;;;20.05;46.38
60101;BME280;45978;53.646;55.930;2022-07-01T03:19:42;99044.81;;;20.13;45.96
60101;BME280;45978;53.646;55.930;2022-07-01T03:21:01;99047.19;;;20.16;45.44
60101;BME280;45978;53.646;55.930;2022-07-01T03:22:25;99063.69;;;20.22;45.16
60101;BME280;45978;53.646;55.930;2022-07-01T03:23:45;99061.06;;;19.99;45.47
60101;BME280;45978;53.646;55.930;2022-07-01T03:25:08;99062.47;;;19.69;45.02
60101;BME280;45978;53.646;55.930;2022-07-01T03:26:28;99062.09;;;19.51;45.54
60101;BME280;45978;53.646;55.930;2022-07-01T03:27:47;99064.63;;;19.42;45.72
60101;BME280;45978;53.646;55.930;2022-07-01T03:29:07;99072.38;;;19.33;46.08
60101;BME280;45978;53.646;55.930;2022-07-01T03:30:27;99069.34;;;19.27;46.53
60101;BME280;45978;53.646;55.930;2022-07-01T03:31:46;99078.13;;;19.16;47.01
60101;BME280;45978;53.646;55.930;2022-07-01T03:33:06;99074.50;;;19.06;47.65
60101;BME280;45978;53.646;55.930;2022-07-01T03:34:27;99076.28;;;18.94;47.40
60101;BME280;45978;53.646;55.930;2022-07-01T03:35:49;99081.59;;;18.70;47.73
60101;BME280;45978;53.646;55.930;2022-07-01T03:37:10;99078.69;;;18.73;47.55
60101;BME280;45978;53.646;55.930;2022-07-01T03:38:30;99077.19;;;18.82;47.71
60101;BME280;45978;53.646;55.930;2022-07-01T03:39:51;99081.09;;;18.89;47.60
60101;BME280;45978;53.646;55.930;2022-07-01T03:41:12;99057.28;;;18.74;47.09
60101;BME280;45978;53.646;55.930;2022-07-01T03:42:33;99083.41;;;18.93;47.29
60101;BME280;45978;53.646;55.930;2022-07-01T03:43:55;99095.31;;;19.12;47.05
60101;BME280;45978;53.646;55.930;2022-07-01T03:45:16;99090.38;;;19.18;46.91
60101;BME280;45978;53.646;55.930;2022-07-01T03:46:36;99082.31;;;19.43;46.64
60101;BME280;45978;53.646;55.930;2022-07-01T03:47:58;99088.00;;;20.40;45.20
60101;BME280;45978;53.646;55.930;2022-07-01T03:49:27;99082.25;;;21.20;43.61
60101;BME280;45978;53.646;55.930;2022-07-01T03:50:46;99087.50;;;22.04;41.89
60101;BME280;45978;53.646;55.930;2022-07-01T03:52:06;99080.00;;;22.39;41.30
60101;BME280;45978;53.646;55.930;2022-07-01T03:53:26;99087.41;;;22.85;40.52
60101;BME280;45978;53.646;55.930;2022-07-01T03:55:04;99091.22;;;23.31;39.65
60101;BME280;45978;53.646;55.930;2022-07-01T03:56:24;99095.09;;;23.47;39.10
60101;BME280;45978;53.646;55.930;2022-07-01T03:57:43;99083.31;;;24.15;37.84
60101;BME280;45978;53.646;55.930;2022-07-01T03:59:03;99074.38;;;24.69;36.29
60101;BME280;45978;53.646;55.930;2022-07-01T04:00:22;99081.81;;;25.56;35.22
60101;BME280;45978;53.646;55.930;2022-07-01T04:01:42;99082.78;;;25.81;34.74
60101;BME280;45978;53.646;55.930;2022-07-01T04:03:04;99074.47;;;25.92;34.45
60101;BME280;45978;53.646;55.930;2022-07-01T04:04:26;99083.81;;;26.14;33.85
60101;BME280;45978;53.646;55.930;2022-07-01T04:05:46;99084.75;;;26.47;33.19
60101;BME280;45978;53.646;55.930;2022-07-01T04:07:06;99087.22;;;26.92;32.86
60101;BME280;45978;53.646;55.930;2022-07-01T04:08:26;99091.94;;;26.90;32.87
60101;BME280;45978;53.646;55.930;2022-07-01T04:09:46;99093.34;;;26.51;32.88
60101;BME280;45978;53.646;55.930;2022-07-01T04:11:06;99098.78;;;25.82;33.65
60101;BME280;45978;53.646;55.930;2022-07-01T04:12:28;99106.66;;;25.32;34.29
60101;BME280;45978;53.646;55.930;2022-07-01T04:13:47;99099.31;;;24.98;34.61
60101;BME280;45978;53.646;55.930;2022-07-01T04:15:11;99100.84;;;24.64;35.18
60101;BME280;45978;53.646;55.930;2022-07-01T04:16:32;99089.13;;;24.38;34.99
60101;BME280;45978;53.646;55.930;2022-07-01T04:17:56;99085.22;;;24.32;35.29
60101;BME280;45978;53.646;55.930;2022-07-01T04:19:20;99089.50;;;24.70;35.05
60101;BME280;45978;53.646;55.930;2022-07-01T04:20:41;99091.88;;;24.92;34.53
60101;BME280;45978;53.646;55.930;2022-07-01T04:22:02;99083.19;;;24.98;34.43
60101;BME280;45978;53.646;55.930;2022-07-01T04:23:40;99084.72;;;24.19;35.38
60101;BME280;45978;53.646;55.930;2022-07-01T04:25:00;99097.72;;;23.66;36.24
60101;BME280;45978;53.646;55.930;2022-07-01T04:26:20;99100.84;;;23.71;36.31
60101;BME280;45978;53.646;55.930;2022-07-01T04:27:39;99098.72;;;23.85;35.88
60101;BME280;45978;53.646;55.930;2022-07-01T04:29:03;99094.66;;;24.08;34.99
60101;BME280;45978;53.646;55.930;2022-07-01T04:30:23;99089.97;;;24.10;35.02
60101;BME280;45978;53.646;55.930;2022-07-01T04:31:45;99093.13;;;23.96;35.53
60101;BME280;45978;53.646;55.930;2022-07-01T04:33:04;99087.44;;;23.71;35.98
60101;BME280;45978;53.646;55.930;2022-07-01T04:34:25;99105.94;;;23.65;36.38
60101;BME280;45978;53.646;55.930;2022-07-01T04:35:44;99101.53;;;23.83;35.52
60101;BME280;45978;53.646;55.930;2022-07-01T04:37:04;99105.47;;;23.89;35.26
60101;BME280;45978;53.646;55.930;2022-07-01T04:38:24;99108.84;;;23.91;35.24
60101;BME280;45978;53.646;55.930;2022-07-01T04:39:49;99115.63;;;23.85;35.44
60101;BME280;45978;53.646;55.930;2022-07-01T04:41:11;99120.06;;;23.67;36.30
60101;BME280;45978;53.646;55.930;2022-07-01T04:42:56;99133.47;;;23.57;36.28
60101;BME280;45978;53.646;55.930;2022-07-01T04:44:17;99134.22;;;23.30;36.73
60101;BME280;45978;53.646;55.930;2022-07-01T04:45:38;99133.94;;;23.13;37.02
60101;BME280;45978;53.646;55.930;2022-07-01T04:46:58;99133.06;;;22.93;37.44
60101;BME280;45978;53.646;55.930;2022-07-01T04:48:18;99123.84;;;22.47;37.78
60101;BME280;45978;53.646;55.930;2022-07-01T04:49:44;99121.72;;;22.41;37.90
60101;BME280;45978;53.646;55.930;2022-07-01T04:51:07;99121.75;;;22.51;37.89
60101;BME280;45978;53.646;55.930;2022-07-01T04:52:30;99127.53;;;22.66;37.39
60101;BME280;45978;53.646;55.930;2022-07-01T04:53:53;99129.97;;;22.88;36.73
60101;BME280;45978;53.646;55.930;2022-07-01T04:55:14;99125.47;;;23.18;36.36
60101;BME280;45978;53.646;55.930;2022-07-01T04:56:35;99129.44;;;23.33;35.76
60101;BME280;45978;53.646;55.930;2022-07-01T04:57:55;99122.13;;;24.20;34.62
60101;BME280;45978;53.646;55.930;2022-07-01T04:59:15;99107.69;;;25.13;33.04
60101;BME280;45978;53.646;55.930;2022-07-01T05:00:35;99125.28;;;25.95;31.78
60101;BME280;45978;53.646;55.930;2022-07-01T05:01:54;99096.88;;;26.52;31.01
60101;BME280;45978;53.646;55.930;2022-07-01T05:03:15;99096.16;;;26.92;30.59
60101;BME280;45978;53.646;55.930;2022-07-01T05:04:35;99115.84;;;27.09;30.47
60101;BME280;45978;53.646;55.930;2022-07-01T05:05:54;99117.88;;;26.82;30.88
60101;BME280;45978;53.646;55.930;2022-07-01T05:07:14;99115.47;;;26.79;30.96
60101;BME280;45978;53.646;55.930;2022-07-01T05:08:48;99113.72;;;26.54;30.75
60101;BME280;45978;53.646;55.930;2022-07-01T05:10:14;99119.09;;;26.03;30.97
60101;BME280;45978;53.646;55.930;2022-07-01T05:11:34;99126.97;;;25.96;31.58
60101;BME280;45978;53.646;55.930;2022-07-01T05:12:55;99124.03;;;26.16;31.62
60101;BME280;45978;53.646;55.930;2022-07-01T05:14:14;99115.69;;;26.78;30.54
60101;BME280;45978;53.646;55.930;2022-07-01T05:15:34;99123.09;;;27.09;30.70
60101;BME280;45978;53.646;55.930;2022-07-01T05:16:54;99114.19;;;27.08;30.63
60101;BME280;45978;53.646;55.930;2022-07-01T05:18:17;99122.28;;;27.33;29.28
60101;BME280;45978;53.646;55.930;2022-07-01T05:19:56;99119.72;;;26.98;30.19
60101;BME280;45978;53.646;55.930;2022-07-01T05:21:34;99120.25;;;26.35;30.95
60101;BME280;45978;53.646;55.930;2022-07-01T05:23:12;99129.69;;;25.52;31.75
60101;BME280;45978;53.646;55.930;2022-07-01T05:24:32;99124.84;;;25.38;31.96
60101;BME280;45978;53.646;55.930;2022-07-01T05:25:52;99122.31;;;25.80;31.66
60101;BME280;45978;53.646;55.930;2022-07-01T05:27:11;99123.59;;;25.94;30.85
60101;BME280;45978;53.646;55.930;2022-07-01T05:28:31;99118.91;;;26.04;30.49
60101;BME280;45978;53.646;55.930;2022-07-01T05:29:50;99114.63;;;26.20;30.39
60101;BME280;45978;53.646;55.930;2022-07-01T05:31:10;99106.75;;;26.26;30.05
60101;BME280;45978;53.646;55.930;2022-07-01T05:32:30;99109.56;;;26.67;29.73
60101;BME280;45978;53.646;55.930;2022-07-01T05:33:49;99115.88;;;27.50;29.13
60101;BME280;45978;53.646;55.930;2022-07-01T05:35:09;99093.59;;;27.73;28.62
60101;BME280;45978;53.646;55.930;2022-07-01T05:36:29;99113.16;;;27.75;28.27
60101;BME280;45978;53.646;55.930;2022-07-01T05:37:49;99102.31;;;27.83;28.64
60101;BME280;45978;53.646;55.930;2022-07-01T05:39:09;99102.66;;;27.80;28.71
60101;BME280;45978;53.646;55.930;2022-07-01T05:40:30;99117.59;;;27.35;29.43
60101;BME280;45978;53.646;55.930;2022-07-01T05:41:49;99131.41;;;27.40;29.48
60101;BME280;45978;53.646;55.930;2022-07-01T05:43:10;99122.94;;;27.68;29.43
60101;BME280;45978;53.646;55.930;2022-07-01T05:44:32;99130.72;;;27.46;29.38
60101;BME280;45978;53.646;55.930;2022-07-01T05:45:55;99113.31;;;27.73;29.21
60101;BME280;45978;53.646;55.930;2022-07-01T05:47:15;99130.44;;;28.05;29.24
60101;BME280;45978;53.646;55.930;2022-07-01T05:48:37;99106.63;;;28.48;28.32
60101;BME280;45978;53.646;55.930;2022-07-01T05:49:59;99118.63;;;28.54;27.28
60101;BME280;45978;53.646;55.930;2022-07-01T05:51:19;99103.06;;;28.87;26.57
60101;BME280;45978;53.646;55.930;2022-07-01T05:52:39;99106.00;;;28.77;26.92
60101;BME280;45978;53.646;55.930;2022-07-01T05:53:59;99107.75;;;29.16;26.81
60101;BME280;45978;53.646;55.930;2022-07-01T05:55:20;99097.09;;;29.38;26.42
60101;BME280;45978;53.646;55.930;2022-07-01T05:56:44;99110.28;;;29.56;27.12
60101;BME280;45978;53.646;55.930;2022-07-01T05:58:04;99108.13;;;29.66;26.41
60101;BME280;45978;53.646;55.930;2022-07-01T05:59:26;99108.41;;;29.56;26.16
60101;BME280;45978;53.646;55.930;2022-07-01T06:00:48;99111.75;;;29.44;26.89
60101;BME280;45978;53.646;55.930;2022-07-01T06:02:08;99112.69;;;29.51;26.62
60101;BME280;45978;53.646;55.930;2022-07-01T06:03:27;99120.44;;;29.69;26.08
60101;BME280;45978;53.646;55.930;2022-07-01T06:04:47;99114.16;;;29.91;26.29
60101;BME280;45978;53.646;55.930;2022-07-01T06:06:07;99116.22;;;30.34;26.07
60101;BME280;45978;53.646;55.930;2022-07-01T06:07:26;99119.19;;;30.54;25.83
60101;BME280;45978;53.646;55.930;2022-07-01T06:08:46;99118.06;;;30.18;25.99
60101;BME280;45978;53.646;55.930;2022-07-01T06:10:08;99117.69;;;29.39;26.86
60101;BME280;45978;53.646;55.930;2022-07-01T06:11:30;99106.19;;;29.22;27.43
60101;BME280;45978;53.646;55.930;2022-07-01T06:12:54;99116.25;;;29.05;27.69
60101;BME280;45978;53.646;55.930;2022-07-01T06:14:13;99106.66;;;28.79;27.68
60101;BME280;45978;53.646;55.930;2022-07-01T06:15:33;99109.22;;;28.96;27.76
60101;BME280;45978;53.646;55.930;2022-07-01T06:16:53;99115.03;;;29.16;27.49
60101;BME280;45978;53.646;55.930;2022-07-01T06:18:19;99116.75;;;29.32;27.46
60101;BME280;45978;53.646;55.930;2022-07-01T06:19:39;99110.81;;;29.13;28.20
60101;BME280;45978;53.646;55.930;2022-07-01T06:21:00;99114.97;;;29.24;28.07
60101;BME280;45978;53.646;55.930;2022-07-01T06:22:24;99112.59;;;28.98;28.37
60101;BME280;45978;53.646;55.930;2022-07-01T06:23:47;99114.94;;;28.78;28.71
60101;BME280;45978;53.646;55.930;2022-07-01T06:25:12;99118.53;;;28.31;29.32
60101;BME280;45978;53.646;55.930;2022-07-01T06:26:32;99126.28;;;27.78;29.94
60101;BME280;45978;53.646;55.930;2022-07-01T06:27:54;99134.94;;;27.24;30.93
60101;BME280;45978;53.646;55.930;2022-07-01T06:29:14;99127.69;;;27.49;31.05
60101;BME280;45978;53.646;55.930;2022-07-01T06:30:39;99125.78;;;27.66;30.97
60101;BME280;45978;53.646;55.930;2022-07-01T06:32:05;99122.09;;;27.18;31.44
60101;BME280;45978;53.646;55.930;2022-07-01T06:33:25;99120.03;;;26.71;32.12
60101;BME280;45978;53.646;55.930;2022-07-01T06:34:47;99122.47;;;26.56;32.72
60101;BME280;45978;53.646;55.930;2022-07-01T06:36:14;99128.00;;;27.21;32.04
60101;BME280;45978;53.646;55.930;2022-07-01T06:37:35;99132.38;;;27.14;31.71
60101;BME280;45978;53.646;55.930;2022-07-01T06:38:56;99133.72;;;27.02;31.96
60101;BME280;45978;53.646;55.930;2022-07-01T06:40:16;99133.94;;;27.41;31.72
60101;BME280;45978;53.646;55.930;2022-07-01T06:41:37;99140.78;;;27.85;30.74
60101;BME280;45978;53.646;55.930;2022-07-01T06:42:57;99125.69;;;28.23;30.37
60101;BME280;45978;53.646;55.930;2022-07-01T06:44:17;99123.22;;;28.99;29.67
60101;BME280;45978;53.646;55.930;2022-07-01T06:45:36;99132.97;;;28.86;29.88
60101;BME280;45978;53.646;55.930;2022-07-01T06:46:56;99128.56;;;28.61;29.87
60101;BME280;45978;53.646;55.930;2022-07-01T06:48:15;99126.84;;;28.69;30.02
60101;BME280;45978;53.646;55.930;2022-07-01T06:49:36;99135.66;;;28.86;29.46
60101;BME280;45978;53.646;55.930;2022-07-01T06:50:58;99119.81;;;29.29;29.25
60101;BME280;45978;53.646;55.930;2022-07-01T06:52:19;99127.81;;;29.60;29.18
60101;BME280;45978;53.646;55.930;2022-07-01T06:53:39;99139.84;;;29.95;28.22
60101;BME280;45978;53.646;55.930;2022-07-01T06:55:05;99134.88;;;29.84;28.19
60101;BME280;45978;53.646;55.930;2022-07-01T06:56:29;99139.00;;;29.57;28.86
60101;BME280;45978;53.646;55.930;2022-07-01T06:57:48;99130.69;;;29.44;29.01
60101;BME280;45978;53.646;55.930;2022-07-01T06:59:09;99132.00;;;29.48;29.10
60101;BME280;45978;53.646;55.930;2022-07-01T07:00:29;99140.84;;;29.41;29.44
60101;BME280;45978;53.646;55.930;2022-07-01T07:01:50;99134.59;;;29.41;29.47
60101;BME280;45978;53.646;55.930;2022-07-01T07:03:10;99134.97;;;29.76;29.14
60101;BME280;45978;53.646;55.930;2022-07-01T07:04:33;99136.09;;;29.44;29.43